OINN  Noshahr  Airport

Iran

Add Bookmark
ICAO OINN
IATA NSH
Type Airport
Status Operational
Latitude
36° 39' 47" N
36.663300
Longitude
51° 27' 52" E
51.464699
Local (GMT +4.5 ) UTC
Jun 1, 2016 06:07 am Jun 1, 2016 01:37
Sunrise-Sunset Local UTC
Begin Civil Twilight 05:15 am 00:45
Sunrise 05:45 am 01:15
Sunset 08:18 pm 15:48
End Civil Twilight 08:49 pm 16:19
VFR
VFR
MVFR
MVFR
IFR
IFR
LIFR
LIFR
Unknown
Unavailable

Current Weather

METAR Observed VFR
OINN 010100Z 00000KT 9999 FEW020CB SCT025 BKN090 20/17 Q1009 Wed, Jun 1, 2016 @ 01:00 UTC
(37 Minutes ago)
Visual Flight Rules
Wind Visibility Clouds Conditions
Calm 10 km or more
  • Few at 2,000 ft AGL
  • Scattered at 2,500 ft AGL
  • Broken at 9,000 ft AGL
  • No significant weather
Temperatures Readings Precipitation
Current Temp
20°C
68°F
Dewpoint
17°C
63°F
Humidity 83%
Altimeter 29.79" Hg
Sea Level Pressure 1,009 mb
None Recorded

Additional weather within a 92.6km radius of OINN

Map ICAO Location
OINR 75km W/NW (292°)
VFR
VFR
MVFR
MVFR
IFR
IFR
LIFR
LIFR
Unknown
Unavailable
-
-

CheckWX.com is intended as a tool to help pilots better visualize weather data. It is not intended as a substitute for an official weather briefing obtained from a Flight Service Station. CheckWX.com does not meet the FAA requirements for an official pre-flight weather briefing. Therefore, it's important that pilots still call and obtain an official FSS pre-flight weather briefing.

© 2007-2016 CheckWX.com
01:37:37 UTC